sensor_id;sensor_type;location;lat;lon;timestamp;P1;durP1;ratioP1;P2;durP2;ratioP2
27706;SDS011;36332;51.384;0.040;2023-06-14T00:01:43;10.88;;;4.28;;
27706;SDS011;36332;51.384;0.040;2023-06-14T00:04:12;9.75;;;4.10;;
27706;SDS011;36332;51.384;0.040;2023-06-14T00:06:40;10.32;;;3.92;;
27706;SDS011;36332;51.384;0.040;2023-06-14T00:09:08;7.45;;;3.63;;
27706;SDS011;36332;51.384;0.040;2023-06-14T00:11:36;9.43;;;3.92;;
27706;SDS011;36332;51.384;0.040;2023-06-14T00:14:04;14.88;;;4.82;;
27706;SDS011;36332;51.384;0.040;2023-06-14T00:16:32;10.10;;;4.18;;
27706;SDS011;36332;51.384;0.040;2023-06-14T00:19:03;9.18;;;4.18;;
27706;SDS011;36332;51.384;0.040;2023-06-14T00:21:31;6.80;;;3.50;;
27706;SDS011;36332;51.384;0.040;2023-06-14T00:24:00;7.30;;;3.58;;
27706;SDS011;36332;51.384;0.040;2023-06-14T00:26:28;13.55;;;4.55;;
27706;SDS011;36332;51.384;0.040;2023-06-14T00:28:57;14.07;;;3.97;;
27706;SDS011;36332;51.384;0.040;2023-06-14T00:31:26;11.38;;;4.35;;
27706;SDS011;36332;51.384;0.040;2023-06-14T00:33:54;5.55;;;3.70;;
27706;SDS011;36332;51.384;0.040;2023-06-14T00:36:22;11.25;;;4.30;;
27706;SDS011;36332;51.384;0.040;2023-06-14T00:38:49;5.50;;;3.38;;
27706;SDS011;36332;51.384;0.040;2023-06-14T00:41:18;8.30;;;3.15;;
27706;SDS011;36332;51.384;0.040;2023-06-14T00:43:46;9.57;;;3.72;;
27706;SDS011;36332;51.384;0.040;2023-06-14T00:46:14;9.68;;;3.85;;
27706;SDS011;36332;51.384;0.040;2023-06-14T00:48:42;9.77;;;3.60;;
27706;SDS011;36332;51.384;0.040;2023-06-14T00:51:10;7.38;;;3.33;;
27706;SDS011;36332;51.384;0.040;2023-06-14T00:53:38;9.00;;;3.10;;
27706;SDS011;36332;51.384;0.040;2023-06-14T00:56:06;9.27;;;3.28;;
27706;SDS011;36332;51.384;0.040;2023-06-14T00:58:35;18.35;;;3.70;;
27706;SDS011;36332;51.384;0.040;2023-06-14T01:01:02;5.97;;;3.22;;
27706;SDS011;36332;51.384;0.040;2023-06-14T01:03:33;7.70;;;3.33;;
27706;SDS011;36332;51.384;0.040;2023-06-14T01:08:59;7.78;;;3.47;;
27706;SDS011;36332;51.384;0.040;2023-06-14T01:12:09;7.80;;;3.38;;
27706;SDS011;36332;51.384;0.040;2023-06-14T01:14:29;8.25;;;3.65;;
27706;SDS011;36332;51.384;0.040;2023-06-14T01:16:58;6.45;;;3.13;;
27706;SDS011;36332;51.384;0.040;2023-06-14T01:19:27;10.57;;;3.28;;
27706;SDS011;36332;51.384;0.040;2023-06-14T01:21:56;14.80;;;4.80;;
27706;SDS011;36332;51.384;0.040;2023-06-14T01:24:26;14.73;;;3.65;;
27706;SDS011;36332;51.384;0.040;2023-06-14T01:26:56;13.05;;;3.45;;
27706;SDS011;36332;51.384;0.040;2023-06-14T01:29:27;11.90;;;3.78;;
27706;SDS011;36332;51.384;0.040;2023-06-14T01:31:59;5.63;;;3.20;;
27706;SDS011;36332;51.384;0.040;2023-06-14T01:34:30;11.85;;;3.42;;
27706;SDS011;36332;51.384;0.040;2023-06-14T01:36:59;10.15;;;4.53;;
27706;SDS011;36332;51.384;0.040;2023-06-14T01:39:28;16.85;;;6.00;;
27706;SDS011;36332;51.384;0.040;2023-06-14T01:41:56;9.27;;;4.53;;
27706;SDS011;36332;51.384;0.040;2023-06-14T01:44:25;13.05;;;4.18;;
27706;SDS011;36332;51.384;0.040;2023-06-14T01:46:54;11.95;;;4.32;;
27706;SDS011;36332;51.384;0.040;2023-06-14T01:49:22;9.00;;;4.22;;
27706;SDS011;36332;51.384;0.040;2023-06-14T01:51:50;10.07;;;3.65;;
27706;SDS011;36332;51.384;0.040;2023-06-14T01:54:17;8.27;;;3.83;;
27706;SDS011;36332;51.384;0.040;2023-06-14T01:56:45;10.52;;;3.65;;
27706;SDS011;36332;51.384;0.040;2023-06-14T01:59:12;13.98;;;3.78;;
27706;SDS011;36332;51.384;0.040;2023-06-14T02:01:40;11.50;;;4.03;;
27706;SDS011;36332;51.384;0.040;2023-06-14T02:04:08;13.65;;;4.15;;
27706;SDS011;36332;51.384;0.040;2023-06-14T02:06:37;14.75;;;4.70;;
27706;SDS011;36332;51.384;0.040;2023-06-14T02:09:05;10.85;;;4.35;;
27706;SDS011;36332;51.384;0.040;2023-06-14T02:11:32;11.13;;;4.72;;
27706;SDS011;36332;51.384;0.040;2023-06-14T02:14:00;13.63;;;4.38;;
27706;SDS011;36332;51.384;0.040;2023-06-14T02:16:28;14.68;;;5.25;;
27706;SDS011;36332;51.384;0.040;2023-06-14T02:18:57;15.52;;;5.38;;
27706;SDS011;36332;51.384;0.040;2023-06-14T02:21:25;29.60;;;5.40;;
27706;SDS011;36332;51.384;0.040;2023-06-14T02:23:52;12.23;;;5.18;;
27706;SDS011;36332;51.384;0.040;2023-06-14T02:26:20;14.27;;;4.45;;
27706;SDS011;36332;51.384;0.040;2023-06-14T02:28:49;14.00;;;4.53;;
27706;SDS011;36332;51.384;0.040;2023-06-14T02:31:17;14.57;;;4.85;;
27706;SDS011;36332;51.384;0.040;2023-06-14T02:33:48;13.13;;;4.28;;
27706;SDS011;36332;51.384;0.040;2023-06-14T02:36:16;16.60;;;5.38;;
27706;SDS011;36332;51.384;0.040;2023-06-14T02:38:44;19.55;;;5.65;;
27706;SDS011;36332;51.384;0.040;2023-06-14T02:41:12;14.23;;;4.47;;
27706;SDS011;36332;51.384;0.040;2023-06-14T02:43:39;15.23;;;5.45;;
27706;SDS011;36332;51.384;0.040;2023-06-14T02:46:07;15.20;;;5.82;;
27706;SDS011;36332;51.384;0.040;2023-06-14T02:48:34;16.13;;;4.70;;
27706;SDS011;36332;51.384;0.040;2023-06-14T02:51:02;18.98;;;5.70;;
27706;SDS011;36332;51.384;0.040;2023-06-14T02:53:29;11.60;;;4.88;;
27706;SDS011;36332;51.384;0.040;2023-06-14T02:55:57;15.27;;;5.97;;
27706;SDS011;36332;51.384;0.040;2023-06-14T02:58:25;10.68;;;5.55;;
27706;SDS011;36332;51.384;0.040;2023-06-14T03:00:53;17.50;;;5.28;;
27706;SDS011;36332;51.384;0.040;2023-06-14T03:03:22;9.73;;;5.13;;
27706;SDS011;36332;51.384;0.040;2023-06-14T03:05:54;20.77;;;5.15;;
27706;SDS011;36332;51.384;0.040;2023-06-14T03:08:25;15.95;;;4.72;;
27706;SDS011;36332;51.384;0.040;2023-06-14T03:10:59;14.85;;;4.78;;
27706;SDS011;36332;51.384;0.040;2023-06-14T03:13:26;15.45;;;4.75;;
27706;SDS011;36332;51.384;0.040;2023-06-14T03:15:54;9.90;;;4.93;;
27706;SDS011;36332;51.384;0.040;2023-06-14T03:18:23;15.18;;;6.35;;
27706;SDS011;36332;51.384;0.040;2023-06-14T03:20:55;25.83;;;6.25;;
27706;SDS011;36332;51.384;0.040;2023-06-14T03:23:27;12.27;;;6.15;;
27706;SDS011;36332;51.384;0.040;2023-06-14T03:25:54;15.88;;;6.57;;
27706;SDS011;36332;51.384;0.040;2023-06-14T03:28:23;16.33;;;5.25;;
27706;SDS011;36332;51.384;0.040;2023-06-14T03:30:52;20.58;;;5.05;;
27706;SDS011;36332;51.384;0.040;2023-06-14T03:33:22;12.70;;;5.57;;
27706;SDS011;36332;51.384;0.040;2023-06-14T03:35:49;16.90;;;5.25;;
27706;SDS011;36332;51.384;0.040;2023-06-14T03:38:18;16.75;;;5.70;;
27706;SDS011;36332;51.384;0.040;2023-06-14T03:40:45;13.82;;;5.70;;
27706;SDS011;36332;51.384;0.040;2023-06-14T03:43:13;17.98;;;5.97;;
27706;SDS011;36332;51.384;0.040;2023-06-14T03:45:41;19.70;;;6.40;;
27706;SDS011;36332;51.384;0.040;2023-06-14T03:48:09;20.77;;;6.55;;
27706;SDS011;36332;51.384;0.040;2023-06-14T03:50:37;13.80;;;5.45;;
27706;SDS011;36332;51.384;0.040;2023-06-14T03:53:06;16.98;;;5.60;;
27706;SDS011;36332;51.384;0.040;2023-06-14T03:55:36;15.82;;;4.97;;
27706;SDS011;36332;51.384;0.040;2023-06-14T03:58:25;17.83;;;6.05;;
27706;SDS011;36332;51.384;0.040;2023-06-14T04:00:53;14.38;;;5.57;;
27706;SDS011;36332;51.384;0.040;2023-06-14T04:03:21;17.15;;;6.25;;
27706;SDS011;36332;51.384;0.040;2023-06-14T04:05:52;15.68;;;5.75;;
27706;SDS011;36332;51.384;0.040;2023-06-14T04:08:23;20.80;;;6.03;;
27706;SDS011;36332;51.384;0.040;2023-06-14T04:10:51;21.25;;;5.63;;
27706;SDS011;36332;51.384;0.040;2023-06-14T04:13:19;11.00;;;4.95;;
27706;SDS011;36332;51.384;0.040;2023-06-14T04:15:48;15.25;;;6.25;;
27706;SDS011;36332;51.384;0.040;2023-06-14T04:18:22;21.15;;;5.85;;
27706;SDS011;36332;51.384;0.040;2023-06-14T04:20:51;17.65;;;6.30;;
27706;SDS011;36332;51.384;0.040;2023-06-14T04:23:20;20.83;;;6.63;;
27706;SDS011;36332;51.384;0.040;2023-06-14T04:25:49;12.10;;;6.03;;
27706;SDS011;36332;51.384;0.040;2023-06-14T04:28:17;15.20;;;5.85;;
27706;SDS011;36332;51.384;0.040;2023-06-14T04:30:46;21.02;;;6.63;;
27706;SDS011;36332;51.384;0.040;2023-06-14T04:33:16;20.70;;;6.18;;
27706;SDS011;36332;51.384;0.040;2023-06-14T04:35:45;19.23;;;6.90;;
27706;SDS011;36332;51.384;0.040;2023-06-14T04:38:17;19.10;;;6.88;;
27706;SDS011;36332;51.384;0.040;2023-06-14T04:40:45;14.88;;;6.00;;
27706;SDS011;36332;51.384;0.040;2023-06-14T04:43:16;14.50;;;5.82;;
27706;SDS011;36332;51.384;0.040;2023-06-14T04:45:47;18.90;;;6.65;;
27706;SDS011;36332;51.384;0.040;2023-06-14T04:48:16;18.70;;;6.80;;
27706;SDS011;36332;51.384;0.040;2023-06-14T04:50:48;20.73;;;6.20;;
27706;SDS011;36332;51.384;0.040;2023-06-14T04:53:20;14.10;;;6.97;;
27706;SDS011;36332;51.384;0.040;2023-06-14T04:55:53;17.90;;;6.80;;
27706;SDS011;36332;51.384;0.040;2023-06-14T04:58:22;22.67;;;6.57;;
27706;SDS011;36332;51.384;0.040;2023-06-14T05:00:50;21.98;;;7.00;;
27706;SDS011;36332;51.384;0.040;2023-06-14T05:03:18;15.85;;;6.45;;
27706;SDS011;36332;51.384;0.040;2023-06-14T05:05:48;13.73;;;6.88;;
27706;SDS011;36332;51.384;0.040;2023-06-14T05:08:16;17.70;;;7.57;;
27706;SDS011;36332;51.384;0.040;2023-06-14T05:10:45;15.98;;;7.32;;
27706;SDS011;36332;51.384;0.040;2023-06-14T05:13:13;10.13;;;6.25;;
27706;SDS011;36332;51.384;0.040;2023-06-14T05:15:41;17.30;;;7.53;;
27706;SDS011;36332;51.384;0.040;2023-06-14T05:18:08;20.33;;;7.13;;
27706;SDS011;36332;51.384;0.040;2023-06-14T05:20:36;22.30;;;7.25;;
27706;SDS011;36332;51.384;0.040;2023-06-14T05:23:04;20.58;;;7.10;;
27706;SDS011;36332;51.384;0.040;2023-06-14T05:25:32;16.23;;;7.50;;
27706;SDS011;36332;51.384;0.040;2023-06-14T05:27:59;19.25;;;8.30;;
27706;SDS011;36332;51.384;0.040;2023-06-14T05:30:27;16.15;;;6.57;;
27706;SDS011;36332;51.384;0.040;2023-06-14T05:32:57;18.67;;;6.57;;
27706;SDS011;36332;51.384;0.040;2023-06-14T05:35:26;26.20;;;7.65;;
27706;SDS011;36332;51.384;0.040;2023-06-14T05:37:53;17.05;;;7.00;;
27706;SDS011;36332;51.384;0.040;2023-06-14T05:40:21;22.75;;;7.18;;
27706;SDS011;36332;51.384;0.040;2023-06-14T05:42:49;20.30;;;7.25;;
27706;SDS011;36332;51.384;0.040;2023-06-14T05:45:17;20.55;;;7.38;;
27706;SDS011;36332;51.384;0.040;2023-06-14T05:47:45;18.52;;;7.90;;
27706;SDS011;36332;51.384;0.040;2023-06-14T05:50:13;30.25;;;7.00;;
27706;SDS011;36332;51.384;0.040;2023-06-14T05:52:40;26.27;;;7.85;;
27706;SDS011;36332;51.384;0.040;2023-06-14T05:55:08;15.18;;;6.00;;
27706;SDS011;36332;51.384;0.040;2023-06-14T05:57:39;11.38;;;7.00;;
27706;SDS011;36332;51.384;0.040;2023-06-14T06:00:07;21.88;;;7.53;;
27706;SDS011;36332;51.384;0.040;2023-06-14T06:02:42;18.63;;;6.88;;
27706;SDS011;36332;51.384;0.040;2023-06-14T06:05:11;21.88;;;8.68;;
27706;SDS011;36332;51.384;0.040;2023-06-14T06:07:39;24.98;;;7.45;;
27706;SDS011;36332;51.384;0.040;2023-06-14T06:10:07;19.27;;;7.70;;
27706;SDS011;36332;51.384;0.040;2023-06-14T06:12:35;24.33;;;8.55;;
27706;SDS011;36332;51.384;0.040;2023-06-14T06:15:03;25.50;;;8.63;;
27706;SDS011;36332;51.384;0.040;2023-06-14T06:17:30;22.10;;;7.65;;
27706;SDS011;36332;51.384;0.040;2023-06-14T06:20:18;32.20;;;8.13;;
27706;SDS011;36332;51.384;0.040;2023-06-14T06:22:46;22.23;;;7.05;;
27706;SDS011;36332;51.384;0.040;2023-06-14T06:25:13;19.25;;;6.95;;
27706;SDS011;36332;51.384;0.040;2023-06-14T06:27:42;20.27;;;7.05;;
27706;SDS011;36332;51.384;0.040;2023-06-14T06:30:09;21.88;;;6.55;;
27706;SDS011;36332;51.384;0.040;2023-06-14T06:32:38;31.40;;;8.07;;
27706;SDS011;36332;51.384;0.040;2023-06-14T06:35:05;15.68;;;6.47;;
27706;SDS011;36332;51.384;0.040;2023-06-14T06:37:34;23.50;;;7.85;;
27706;SDS011;36332;51.384;0.040;2023-06-14T06:40:02;20.50;;;7.30;;
27706;SDS011;36332;51.384;0.040;2023-06-14T06:42:33;18.38;;;7.40;;
27706;SDS011;36332;51.384;0.040;2023-06-14T06:45:04;21.35;;;7.07;;
27706;SDS011;36332;51.384;0.040;2023-06-14T06:47:33;33.55;;;8.00;;
27706;SDS011;36332;51.384;0.040;2023-06-14T06:50:00;24.92;;;8.43;;
27706;SDS011;36332;51.384;0.040;2023-06-14T06:52:29;23.38;;;7.78;;
27706;SDS011;36332;51.384;0.040;2023-06-14T06:54:57;19.17;;;7.18;;
27706;SDS011;36332;51.384;0.040;2023-06-14T06:57:25;17.83;;;7.05;;
27706;SDS011;36332;51.384;0.040;2023-06-14T06:59:52;22.38;;;8.48;;
27706;SDS011;36332;51.384;0.040;2023-06-14T07:02:21;30.85;;;8.13;;
27706;SDS011;36332;51.384;0.040;2023-06-14T07:04:49;24.25;;;8.00;;
27706;SDS011;36332;51.384;0.040;2023-06-14T07:07:19;18.02;;;8.00;;
27706;SDS011;36332;51.384;0.040;2023-06-14T07:09:47;20.50;;;8.02;;
27706;SDS011;36332;51.384;0.040;2023-06-14T07:12:15;21.70;;;8.73;;
27706;SDS011;36332;51.384;0.040;2023-06-14T07:14:42;22.70;;;8.52;;
27706;SDS011;36332;51.384;0.040;2023-06-14T07:17:10;21.75;;;8.80;;
27706;SDS011;36332;51.384;0.040;2023-06-14T07:19:38;26.23;;;8.32;;
27706;SDS011;36332;51.384;0.040;2023-06-14T07:22:08;25.50;;;8.82;;
27706;SDS011;36332;51.384;0.040;2023-06-14T07:24:36;25.83;;;8.60;;
27706;SDS011;36332;51.384;0.040;2023-06-14T07:27:04;22.92;;;8.95;;
27706;SDS011;36332;51.384;0.040;2023-06-14T07:29:31;21.17;;;9.88;;
27706;SDS011;36332;51.384;0.040;2023-06-14T07:31:59;24.95;;;9.07;;
27706;SDS011;36332;51.384;0.040;2023-06-14T07:34:27;18.67;;;7.85;;
27706;SDS011;36332;51.384;0.040;2023-06-14T07:36:55;24.15;;;8.60;;
27706;SDS011;36332;51.384;0.040;2023-06-14T07:39:22;18.13;;;7.85;;
27706;SDS011;36332;51.384;0.040;2023-06-14T07:41:52;29.40;;;8.77;;
27706;SDS011;36332;51.384;0.040;2023-06-14T07:44:20;29.45;;;10.10;;
27706;SDS011;36332;51.384;0.040;2023-06-14T07:46:47;22.88;;;9.40;;
27706;SDS011;36332;51.384;0.040;2023-06-14T07:49:16;29.65;;;10.30;;
27706;SDS011;36332;51.384;0.040;2023-06-14T07:51:44;21.55;;;9.48;;
27706;SDS011;36332;51.384;0.040;2023-06-14T07:54:13;25.40;;;9.77;;
27706;SDS011;36332;51.384;0.040;2023-06-14T07:56:41;22.02;;;9.00;;
27706;SDS011;36332;51.384;0.040;2023-06-14T07:59:10;22.15;;;9.98;;
27706;SDS011;36332;51.384;0.040;2023-06-14T08:01:38;29.48;;;9.15;;
27706;SDS011;36332;51.384;0.040;2023-06-14T08:04:06;27.00;;;9.18;;
27706;SDS011;36332;51.384;0.040;2023-06-14T08:06:34;19.38;;;8.65;;
27706;SDS011;36332;51.384;0.040;2023-06-14T08:09:02;34.92;;;9.85;;
27706;SDS011;36332;51.384;0.040;2023-06-14T08:11:30;24.52;;;8.88;;
27706;SDS011;36332;51.384;0.040;2023-06-14T08:13:57;27.50;;;8.93;;
27706;SDS011;36332;51.384;0.040;2023-06-14T08:16:25;28.60;;;8.80;;
27706;SDS011;36332;51.384;0.040;2023-06-14T08:18:53;18.85;;;8.85;;
27706;SDS011;36332;51.384;0.040;2023-06-14T08:21:20;30.92;;;8.55;;
27706;SDS011;36332;51.384;0.040;2023-06-14T08:23:49;34.97;;;8.20;;
27706;SDS011;36332;51.384;0.040;2023-06-14T08:26:20;18.13;;;8.18;;
27706;SDS011;36332;51.384;0.040;2023-06-14T08:28:49;22.45;;;7.57;;
27706;SDS011;36332;51.384;0.040;2023-06-14T08:31:17;24.17;;;8.48;;
27706;SDS011;36332;51.384;0.040;2023-06-14T08:33:44;18.98;;;7.88;;
27706;SDS011;36332;51.384;0.040;2023-06-14T08:36:13;18.48;;;8.00;;
27706;SDS011;36332;51.384;0.040;2023-06-14T08:38:41;20.05;;;7.40;;
27706;SDS011;36332;51.384;0.040;2023-06-14T08:41:09;19.50;;;9.52;;
27706;SDS011;36332;51.384;0.040;2023-06-14T08:43:40;12.27;;;7.45;;
27706;SDS011;36332;51.384;0.040;2023-06-14T08:46:08;22.30;;;8.13;;
27706;SDS011;36332;51.384;0.040;2023-06-14T08:48:37;20.92;;;7.72;;
27706;SDS011;36332;51.384;0.040;2023-06-14T08:51:06;18.17;;;6.95;;
27706;SDS011;36332;51.384;0.040;2023-06-14T08:53:37;23.13;;;8.43;;
27706;SDS011;36332;51.384;0.040;2023-06-14T08:56:09;19.98;;;8.13;;
27706;SDS011;36332;51.384;0.040;2023-06-14T08:58:41;22.65;;;8.30;;
27706;SDS011;36332;51.384;0.040;2023-06-14T09:01:12;23.65;;;7.40;;
27706;SDS011;36332;51.384;0.040;2023-06-14T09:03:41;18.77;;;7.20;;
27706;SDS011;36332;51.384;0.040;2023-06-14T09:06:09;28.88;;;8.45;;
27706;SDS011;36332;51.384;0.040;2023-06-14T09:08:44;28.25;;;7.65;;
27706;SDS011;36332;51.384;0.040;2023-06-14T09:11:18;22.50;;;8.25;;
27706;SDS011;36332;51.384;0.040;2023-06-14T09:13:46;26.45;;;8.07;;
27706;SDS011;36332;51.384;0.040;2023-06-14T09:16:14;18.75;;;6.88;;
27706;SDS011;36332;51.384;0.040;2023-06-14T09:18:43;20.13;;;6.90;;
27706;SDS011;36332;51.384;0.040;2023-06-14T09:21:11;27.45;;;7.80;;
27706;SDS011;36332;51.384;0.040;2023-06-14T09:23:46;17.30;;;8.45;;
27706;SDS011;36332;51.384;0.040;2023-06-14T09:26:16;20.77;;;7.85;;
27706;SDS011;36332;51.384;0.040;2023-06-14T09:28:47;23.23;;;8.40;;
27706;SDS011;36332;51.384;0.040;2023-06-14T09:31:17;23.45;;;8.32;;
27706;SDS011;36332;51.384;0.040;2023-06-14T09:33:47;21.42;;;8.70;;
27706;SDS011;36332;51.384;0.040;2023-06-14T09:36:16;21.30;;;8.60;;
27706;SDS011;36332;51.384;0.040;2023-06-14T09:38:52;23.65;;;7.05;;
27706;SDS011;36332;51.384;0.040;2023-06-14T09:41:31;17.33;;;7.00;;
27706;SDS011;36332;51.384;0.040;2023-06-14T09:44:00;32.38;;;8.13;;
27706;SDS011;36332;51.384;0.040;2023-06-14T09:46:34;20.48;;;8.85;;
27706;SDS011;36332;51.384;0.040;2023-06-14T09:49:04;13.23;;;7.28;;
27706;SDS011;36332;51.384;0.040;2023-06-14T09:51:33;27.10;;;8.32;;
27706;SDS011;36332;51.384;0.040;2023-06-14T09:54:04;19.77;;;7.35;;
27706;SDS011;36332;51.384;0.040;2023-06-14T09:56:40;19.80;;;7.55;;
27706;SDS011;36332;51.384;0.040;2023-06-14T09:59:12;20.92;;;7.32;;
27706;SDS011;36332;51.384;0.040;2023-06-14T10:01:41;21.17;;;7.85;;
27706;SDS011;36332;51.384;0.040;2023-06-14T10:04:10;22.00;;;8.15;;
27706;SDS011;36332;51.384;0.040;2023-06-14T10:06:41;19.40;;;7.18;;
27706;SDS011;36332;51.384;0.040;2023-06-14T10:09:12;16.45;;;7.20;;
27706;SDS011;36332;51.384;0.040;2023-06-14T10:11:41;18.05;;;6.80;;
27706;SDS011;36332;51.384;0.040;2023-06-14T10:14:12;28.30;;;7.57;;
27706;SDS011;36332;51.384;0.040;2023-06-14T10:22:02;23.77;;;6.47;;
27706;SDS011;36332;51.384;0.040;2023-06-14T10:24:40;19.90;;;6.53;;
27706;SDS011;36332;51.384;0.040;2023-06-14T10:27:10;17.88;;;7.68;;
27706;SDS011;36332;51.384;0.040;2023-06-14T10:32:21;15.07;;;6.13;;
27706;SDS011;36332;51.384;0.040;2023-06-14T10:34:56;21.35;;;6.80;;
27706;SDS011;36332;51.384;0.040;2023-06-14T10:37:45;24.20;;;9.18;;
27706;SDS011;36332;51.384;0.040;2023-06-14T10:40:30;18.42;;;6.80;;
27706;SDS011;36332;51.384;0.040;2023-06-14T10:42:57;20.58;;;7.20;;
27706;SDS011;36332;51.384;0.040;2023-06-14T10:45:25;20.27;;;6.82;;
27706;SDS011;36332;51.384;0.040;2023-06-14T10:47:52;22.67;;;7.30;;
27706;SDS011;36332;51.384;0.040;2023-06-14T10:50:27;17.60;;;7.13;;
27706;SDS011;36332;51.384;0.040;2023-06-14T10:53:00;19.67;;;6.93;;
27706;SDS011;36332;51.384;0.040;2023-06-14T10:55:48;17.20;;;6.30;;
27706;SDS011;36332;51.384;0.040;2023-06-14T10:58:16;22.17;;;6.85;;
27706;SDS011;36332;51.384;0.040;2023-06-14T11:00:43;18.48;;;7.15;;
27706;SDS011;36332;51.384;0.040;2023-06-14T11:05:57;14.40;;;6.07;;
27706;SDS011;36332;51.384;0.040;2023-06-14T11:11:11;17.70;;;7.25;;
27706;SDS011;36332;51.384;0.040;2023-06-14T11:13:44;19.58;;;7.40;;
27706;SDS011;36332;51.384;0.040;2023-06-14T11:16:13;13.15;;;6.30;;
27706;SDS011;36332;51.384;0.040;2023-06-14T11:18:43;19.50;;;7.72;;
27706;SDS011;36332;51.384;0.040;2023-06-14T11:21:15;12.85;;;7.68;;
27706;SDS011;36332;51.384;0.040;2023-06-14T11:23:51;18.13;;;8.35;;
27706;SDS011;36332;51.384;0.040;2023-06-14T11:26:25;18.88;;;7.68;;
27706;SDS011;36332;51.384;0.040;2023-06-14T11:28:59;20.23;;;8.02;;
27706;SDS011;36332;51.384;0.040;2023-06-14T11:31:28;18.05;;;6.38;;
27706;SDS011;36332;51.384;0.040;2023-06-14T11:33:59;19.73;;;7.50;;
27706;SDS011;36332;51.384;0.040;2023-06-14T11:36:28;24.08;;;6.47;;
27706;SDS011;36332;51.384;0.040;2023-06-14T11:39:01;12.18;;;6.30;;
27706;SDS011;36332;51.384;0.040;2023-06-14T11:41:43;20.52;;;6.45;;
27706;SDS011;36332;51.384;0.040;2023-06-14T11:44:12;17.00;;;5.88;;
27706;SDS011;36332;51.384;0.040;2023-06-14T11:46:40;19.00;;;6.40;;
27706;SDS011;36332;51.384;0.040;2023-06-14T11:49:08;24.95;;;8.07;;
27706;SDS011;36332;51.384;0.040;2023-06-14T11:51:36;20.58;;;7.90;;
27706;SDS011;36332;51.384;0.040;2023-06-14T11:54:06;15.43;;;6.68;;
27706;SDS011;36332;51.384;0.040;2023-06-14T11:56:34;14.88;;;6.40;;
27706;SDS011;36332;51.384;0.040;2023-06-14T11:59:05;20.13;;;6.63;;
27706;SDS011;36332;51.384;0.040;2023-06-14T12:01:35;14.57;;;7.20;;
27706;SDS011;36332;51.384;0.040;2023-06-14T12:04:06;17.70;;;7.32;;
27706;SDS011;36332;51.384;0.040;2023-06-14T12:06:33;17.60;;;6.03;;
27706;SDS011;36332;51.384;0.040;2023-06-14T12:09:03;14.32;;;6.68;;
27706;SDS011;36332;51.384;0.040;2023-06-14T12:11:41;21.95;;;7.05;;
27706;SDS011;36332;51.384;0.040;2023-06-14T12:14:09;14.55;;;6.57;;
27706;SDS011;36332;51.384;0.040;2023-06-14T12:16:38;13.10;;;6.00;;
27706;SDS011;36332;51.384;0.040;2023-06-14T12:19:08;15.02;;;6.15;;
27706;SDS011;36332;51.384;0.040;2023-06-14T12:21:40;16.38;;;5.70;;
27706;SDS011;36332;51.384;0.040;2023-06-14T12:24:11;14.85;;;5.63;;
27706;SDS011;36332;51.384;0.040;2023-06-14T12:26:40;17.73;;;7.07;;
27706;SDS011;36332;51.384;0.040;2023-06-14T12:29:08;14.50;;;6.40;;
27706;SDS011;36332;51.384;0.040;2023-06-14T12:31:37;9.55;;;5.57;;
27706;SDS011;36332;51.384;0.040;2023-06-14T12:34:05;16.98;;;5.53;;
27706;SDS011;36332;51.384;0.040;2023-06-14T12:36:34;12.23;;;5.72;;
27706;SDS011;36332;51.384;0.040;2023-06-14T12:39:07;15.88;;;5.55;;
27706;SDS011;36332;51.384;0.040;2023-06-14T12:41:36;13.00;;;6.03;;
27706;SDS011;36332;51.384;0.040;2023-06-14T12:44:04;12.35;;;5.28;;
27706;SDS011;36332;51.384;0.040;2023-06-14T12:46:32;12.60;;;6.53;;
27706;SDS011;36332;51.384;0.040;2023-06-14T12:49:00;11.95;;;5.78;;
27706;SDS011;36332;51.384;0.040;2023-06-14T12:51:28;12.18;;;5.70;;
27706;SDS011;36332;51.384;0.040;2023-06-14T12:53:56;9.00;;;5.80;;
27706;SDS011;36332;51.384;0.040;2023-06-14T12:56:24;12.98;;;6.13;;
27706;SDS011;36332;51.384;0.040;2023-06-14T12:58:53;12.48;;;5.50;;
27706;SDS011;36332;51.384;0.040;2023-06-14T13:01:21;14.88;;;6.53;;
27706;SDS011;36332;51.384;0.040;2023-06-14T13:03:48;9.38;;;5.30;;
27706;SDS011;36332;51.384;0.040;2023-06-14T13:06:20;10.75;;;4.97;;
27706;SDS011;36332;51.384;0.040;2023-06-14T13:08:48;12.65;;;5.50;;
27706;SDS011;36332;51.384;0.040;2023-06-14T13:11:17;11.95;;;5.57;;
27706;SDS011;36332;51.384;0.040;2023-06-14T13:13:44;22.25;;;5.43;;
27706;SDS011;36332;51.384;0.040;2023-06-14T13:16:12;11.82;;;4.97;;
27706;SDS011;36332;51.384;0.040;2023-06-14T13:18:41;13.00;;;6.10;;
27706;SDS011;36332;51.384;0.040;2023-06-14T13:21:09;9.70;;;4.97;;
27706;SDS011;36332;51.384;0.040;2023-06-14T13:23:36;9.23;;;5.28;;
27706;SDS011;36332;51.384;0.040;2023-06-14T13:26:04;17.63;;;5.68;;
27706;SDS011;36332;51.384;0.040;2023-06-14T13:28:32;12.20;;;5.53;;
27706;SDS011;36332;51.384;0.040;2023-06-14T13:31:01;10.98;;;6.90;;
27706;SDS011;36332;51.384;0.040;2023-06-14T13:33:29;9.82;;;5.45;;
27706;SDS011;36332;51.384;0.040;2023-06-14T13:35:56;9.82;;;5.70;;
27706;SDS011;36332;51.384;0.040;2023-06-14T13:38:24;9.45;;;5.40;;
27706;SDS011;36332;51.384;0.040;2023-06-14T13:40:52;8.80;;;5.60;;
27706;SDS011;36332;51.384;0.040;2023-06-14T13:43:22;16.70;;;5.70;;
27706;SDS011;36332;51.384;0.040;2023-06-14T13:45:50;9.07;;;5.93;;
27706;SDS011;36332;51.384;0.040;2023-06-14T13:48:17;10.30;;;5.75;;
27706;SDS011;36332;51.384;0.040;2023-06-14T13:50:45;8.80;;;5.75;;
27706;SDS011;36332;51.384;0.040;2023-06-14T13:53:13;10.32;;;5.68;;
27706;SDS011;36332;51.384;0.040;2023-06-14T13:55:41;11.73;;;5.35;;
27706;SDS011;36332;51.384;0.040;2023-06-14T13:58:08;13.45;;;5.65;;
27706;SDS011;36332;51.384;0.040;2023-06-14T14:00:36;10.25;;;5.55;;
27706;SDS011;36332;51.384;0.040;2023-06-14T14:03:07;10.38;;;5.55;;
27706;SDS011;36332;51.384;0.040;2023-06-14T14:05:36;9.70;;;5.32;;
27706;SDS011;36332;51.384;0.040;2023-06-14T14:08:04;8.82;;;4.68;;
27706;SDS011;36332;51.384;0.040;2023-06-14T14:10:31;6.60;;;5.40;;
27706;SDS011;36332;51.384;0.040;2023-06-14T14:13:00;22.08;;;5.53;;
27706;SDS011;36332;51.384;0.040;2023-06-14T14:15:28;8.40;;;4.63;;
27706;SDS011;36332;51.384;0.040;2023-06-14T14:17:56;13.45;;;5.40;;
27706;SDS011;36332;51.384;0.040;2023-06-14T14:20:24;11.27;;;5.15;;
27706;SDS011;36332;51.384;0.040;2023-06-14T14:22:52;10.70;;;5.50;;
27706;SDS011;36332;51.384;0.040;2023-06-14T14:25:20;10.20;;;5.55;;
27706;SDS011;36332;51.384;0.040;2023-06-14T14:27:47;6.97;;;5.70;;
27706;SDS011;36332;51.384;0.040;2023-06-14T14:30:15;8.25;;;6.00;;
27706;SDS011;36332;51.384;0.040;2023-06-14T14:32:44;8.52;;;5.07;;
27706;SDS011;36332;51.384;0.040;2023-06-14T14:35:12;8.18;;;4.88;;
27706;SDS011;36332;51.384;0.040;2023-06-14T14:37:40;11.52;;;5.22;;
27706;SDS011;36332;51.384;0.040;2023-06-14T14:40:07;6.35;;;5.15;;
27706;SDS011;36332;51.384;0.040;2023-06-14T14:42:36;9.80;;;4.70;;
27706;SDS011;36332;51.384;0.040;2023-06-14T14:45:04;7.43;;;5.30;;
27706;SDS011;36332;51.384;0.040;2023-06-14T14:47:32;7.40;;;4.70;;
27706;SDS011;36332;51.384;0.040;2023-06-14T14:50:00;6.53;;;4.82;;
27706;SDS011;36332;51.384;0.040;2023-06-14T14:52:28;8.68;;;4.68;;
27706;SDS011;36332;51.384;0.040;2023-06-14T14:54:55;5.43;;;4.43;;
27706;SDS011;36332;51.384;0.040;2023-06-14T14:57:23;9.40;;;4.43;;
27706;SDS011;36332;51.384;0.040;2023-06-14T14:59:51;10.65;;;5.00;;
27706;SDS011;36332;51.384;0.040;2023-06-14T15:02:19;9.57;;;4.88;;
27706;SDS011;36332;51.384;0.040;2023-06-14T15:04:46;8.68;;;4.50;;